Terminal Aerodrome Forecast
Issued by NWS

Home | Current Version | Previous Version | Text Only | Print | Product List | Glossary On
Versions: 1 2 3 4 5 6 7 8 9 10 11 12 13 14 15 16 17 18 19 20
000
FTUS43 KDVN 201927 AAA
TAFBRL
TAF AMD
KBRL 201927Z 2019/2118 18010KT P6SM BKN018
     FM202300 16006KT P6SM SCT150
     FM211000 18008KT P6SM SKC=

USA.gov is the U.S. government's official web portal to all federal, state and local government web resources and services.